Página principal
METAR-TAF:

METAR-TAF

Aeroportos :

Aeroporto Internacional de Cartum

Cartum, Sudão

latitude: 15-36N, longitude: 032-33E, altura: 382 m

Observação actual do tempo

O boletim foi feito há 15 minutos, às 04:00 UTC
Vento 11 kt de sul
Temperatura 30°C
Humidade 38%
Pressão 1011 hPa
Visibilidade 10 km ou mais
sem nuvens abaixo de 1500 metros e sem cumulonimbus

METAR: HSSS 240400Z 18011KT CAVOK 30/14 Q1011 NOSIG

Hora: 07:15 (04:15 UTC)

Previsão

O boletim foi feito há 5 horas e 15 minutos, às 23:00 UTC
Previsão válida de 24 às 00 UTC a 25 às 06 UTC
Vento 12 kt de su-sudoeste com rajadas de 25 kt
Visibilidade: 6000 m
Poucas nuvensa uma altura de 14000 ft

TAF: HSSS 232300Z 2400/2506 20012G25KT 6000 FEW140

Observações e previsões do tempo de mais de 4000 aeroportos (mensagens METAR e TAF).

As estações disponíveis são os pontos amarelos e vermelhos sobre o mapa.

Mova o rato sobre o mapa para ver o nome da estação.

Depois clique no ponto para visualizar as observações e previsões meteorológicas.

Para alterar o mapa : clique nos botões verdes com uma cruz preta para aumentar o zoom; no botão verde com uma pitada de zoom; ou nas setas verdes para mapas adjacentes.


METAR-TAF: